Time;durP1;ratioP1;P1;durP2;ratioP2;P2;SDS_P1;SDS_P2;PMS_P1;PMS_P2;Temp;Humidity;BMP_temperature;BMP_pressure;BME280_temperature;BME280_humidity;BME280_pressure;Samples;Min_cycle;Max_cycle;Signal;HPM_P1;HPM_P2
2023/06/15 00:00:55;;;;;;;0.65;0.45;;;17.30;24.20;;;;;;4996778;28;20046;-85
2023/06/15 00:03:23;;;;;;;0.20;0.20;;;17.20;50.10;;;;;;4996663;28;20057;-85
2023/06/15 00:05:51;;;;;;;0.35;0.35;;;17.10;75.00;;;;;;4979393;28;20046;-85
2023/06/15 00:08:23;;;;;;;0.60;0.60;;;17.10;70.60;;;;;;5014658;28;20042;-85
2023/06/15 00:10:51;;;;;;;0.47;0.45;;;17.10;95.80;;;;;;4996533;28;20056;-85
2023/06/15 00:13:19;;;;;;;0.38;0.38;;;17.10;90.80;;;;;;4982398;28;20045;-85
2023/06/15 00:15:48;;;;;;;0.52;0.20;;;17.10;93.30;;;;;;4997675;28;20499;-85
2023/06/15 00:18:13;;;;;;;0.30;0.30;;;17.00;75.20;;;;;;4965728;28;20389;-85
2023/06/15 00:20:40;;;;;;;0.30;0.30;;;17.00;99.90;;;;;;4997300;28;20054;-85
2023/06/15 00:23:11;;;;;;;0.57;0.35;;;16.30;99.90;;;;;;4981675;28;20050;-85
2023/06/15 00:25:37;;;;;;;0.47;0.47;;;17.00;99.90;;;;;;4961776;28;20489;-86
2023/06/15 00:28:03;;;;;;;0.63;0.63;;;17.00;99.90;;;;;;4989957;28;20125;-85
2023/06/15 00:30:32;;;;;;;0.40;0.40;;;16.70;99.90;;;;;;4980903;28;20157;-89
2023/06/15 00:33:00;;;;;;;0.70;0.60;;;17.00;99.90;;;;;;4997069;28;20077;-85
2023/06/15 00:35:31;;;;;;;0.95;0.50;;;16.80;99.90;;;;;;4981229;28;20639;-85
2023/06/15 00:37:59;;;;;;;0.30;0.30;;;16.90;99.90;;;;;;4986205;28;20116;-85
2023/06/15 00:40:29;;;;;;;0.30;0.30;;;16.80;99.90;;;;;;4997040;28;20093;-85
2023/06/15 00:43:08;;;;;;;;;;;;;;;;;;;;;
2023/06/15 00:45:39;;;;;;;0.40;0.40;;;16.70;99.90;;;;;;4982482;28;20480;-84
2023/06/15 00:48:05;;;;;;;0.22;0.22;;;15.70;99.90;;;;;;4979004;28;20042;-86
2023/06/15 00:50:41;;;;;;;0.30;0.30;;;16.50;99.90;;;;;;4985578;28;20400;-89
2023/06/15 00:53:12;;;;;;;0.45;0.40;;;16.50;99.90;;;;;;4995447;28;20104;-84
2023/06/15 00:55:42;;;;;;;0.20;0.20;;;16.40;1.00;;;;;;4963298;28;20472;-85
2023/06/15 00:58:08;;;;;;;0.30;0.30;;;16.40;99.90;;;;;;4995044;28;20038;-85
2023/06/15 01:00:36;;;;;;;0.43;0.43;;;16.30;1.00;;;;;;4977953;28;20045;-91
2023/06/15 01:03:09;;;;;;;0.57;0.40;;;16.30;1.00;;;;;;4995340;28;20049;-85
2023/06/15 01:05:36;;;;;;;0.85;0.28;;;16.20;1.00;;;;;;4995569;28;20053;-89
2023/06/15 01:08:08;;;;;;;0.32;0.22;;;16.10;1.00;;;;;;4979250;28;20689;-85
2023/06/15 01:10:37;;;;;;;0.55;0.50;;;16.10;99.90;;;;;;4992891;28;20472;-90
2023/06/15 01:13:04;;;;;;;0.52;0.38;;;16.10;1.00;;;;;;4979324;28;20046;-85
2023/06/15 01:15:33;;;;;;;0.70;0.70;;;16.10;1.00;;;;;;4994341;28;20064;-85
2023/06/15 01:18:05;;;;;;;0.70;0.65;;;16.00;1.00;;;;;;4993928;28;20407;-87
2023/06/15 01:20:43;;;;;;;0.40;0.40;;;16.10;99.90;;;;;;5007491;28;20453;-85
2023/06/15 01:23:19;;;;;;;0.30;0.30;;;16.10;99.90;;;;;;4986721;28;20049;-85
2023/06/15 01:25:53;;;;;;;0.77;0.40;;;16.00;99.90;;;;;;4986954;28;20484;-85
2023/06/15 01:28:23;;;;;;;0.35;0.35;;;15.90;96.70;;;;;;4993215;28;20054;-86
2023/06/15 01:30:54;;;;;;;0.50;0.50;;;15.80;61.50;;;;;;4994065;28;20042;-85
2023/06/15 01:33:23;;;;;;;0.38;0.38;;;15.80;99.90;;;;;;4979180;28;20108;-86
2023/06/15 01:35:55;;;;;;;0.60;0.60;;;15.70;99.90;;;;;;4989912;28;20120;-86
2023/06/15 01:38:26;;;;;;;0.30;0.30;;;15.70;99.90;;;;;;4962834;28;20562;-85
2023/06/15 01:40:56;;;;;;;0.20;0.20;;;15.60;99.90;;;;;;4972968;28;20065;-86
2023/06/15 01:43:42;;;;;;;0.30;0.30;;;15.10;99.90;;;;;;4994603;28;20041;-85
2023/06/15 01:46:13;;;;;;;0.50;0.50;;;15.50;99.90;;;;;;5010084;28;20042;-86
2023/06/15 01:48:42;;;;;;;0.43;0.43;;;15.50;99.90;;;;;;4994318;28;20100;-89
2023/06/15 01:51:11;;;;;;;0.40;0.40;;;15.40;99.90;;;;;;4978539;28;20442;-85
2023/06/15 01:53:38;;;;;;;0.30;0.30;;;14.60;1.00;;;;;;4994309;28;20046;-85
2023/06/15 01:56:04;;;;;;;0.40;0.40;;;15.30;1.00;;;;;;4976375;28;20133;-85
2023/06/15 01:58:30;;;;;;;0.77;0.63;;;15.30;99.90;;;;;;4989598;28;20396;-86
2023/06/15 02:00:55;;;;;;;0.40;0.30;;;15.40;99.90;;;;;;4973764;28;20037;-87
2023/06/15 02:03:21;;;;;;;0.60;0.50;;;15.30;99.90;;;;;;5011762;28;20293;-85
2023/06/15 02:05:47;;;;;;;0.20;0.20;;;15.20;48.50;;;;;;4993931;28;20392;-86
2023/06/15 02:08:13;;;;;;;0.47;0.40;;;15.20;99.90;;;;;;4963039;28;20050;-85
2023/06/15 02:10:41;;;;;;;0.47;0.47;;;15.00;99.90;;;;;;4979742;28;20487;-85
2023/06/15 02:13:10;;;;;;;0.40;0.40;;;15.20;1.00;;;;;;5013058;28;20148;-85
2023/06/15 02:15:36;;;;;;;0.32;0.32;;;15.10;99.90;;;;;;4979848;28;20373;-85
2023/06/15 02:18:04;;;;;;;;;;;15.00;1.00;;;;;;4995520;28;20601;-85
2023/06/15 02:20:33;;;;;;;0.30;0.30;;;15.00;1.00;;;;;;4990838;28;19973;-85
2023/06/15 02:23:11;;;;;;;0.30;0.30;;;15.00;99.90;;;;;;4979003;28;20396;-85
2023/06/15 02:25:42;;;;;;;0.52;0.52;;;15.00;99.90;;;;;;4980437;28;20080;-85
2023/06/15 02:28:10;;;;;;;0.52;0.52;;;15.60;99.90;;;;;;4995322;28;20050;-85
2023/06/15 02:30:43;;;;;;;0.70;0.63;;;14.90;99.90;;;;;;4989458;28;20050;-85
2023/06/15 02:33:10;;;;;;;0.68;0.30;;;14.90;99.90;;;;;;4974218;28;20050;-85
2023/06/15 02:35:46;;;;;;;0.35;0.35;;;14.90;99.90;;;;;;4942491;28;20249;-85
2023/06/15 02:38:16;;;;;;;0.77;0.52;;;14.80;99.90;;;;;;4974567;28;20042;-86
2023/06/15 02:40:42;;;;;;;0.55;0.40;;;14.90;1.00;;;;;;4957521;28;20046;-85
2023/06/15 02:43:08;;;;;;;0.60;0.60;;;14.90;1.00;;;;;;4972719;28;20559;-86
2023/06/15 02:45:44;;;;;;;;;;;;;;;;;;;;;
2023/06/15 02:48:13;;;;;;;0.30;0.30;;;14.90;1.00;;;;;;4973892;28;20042;-86
2023/06/15 02:50:39;;;;;;;0.50;0.50;;;14.80;1.00;;;;;;4957674;28;20053;-85
2023/06/15 02:53:08;;;;;;;0.75;0.75;;;14.70;99.90;;;;;;4957608;28;20042;-85
2023/06/15 02:55:37;;;;;;;0.45;0.38;;;14.70;1.00;;;;;;4973840;28;20054;-85
2023/06/15 02:58:13;;;;;;;0.30;0.30;;;14.70;99.90;;;;;;4972105;28;20523;-85
2023/06/15 03:00:40;;;;;;;0.68;0.50;;;14.60;99.90;;;;;;4941888;28;20043;-84
2023/06/15 03:03:14;;;;;;;0.28;0.28;;;14.60;99.90;;;;;;4973251;28;20116;-87
2023/06/15 03:05:47;;;;;;;0.88;0.52;;;14.60;99.90;;;;;;4974050;28;20049;-85
2023/06/15 03:08:12;;;;;;;0.40;0.40;;;14.50;99.90;;;;;;4973471;28;20069;-87
2023/06/15 03:10:38;;;;;;;0.47;0.43;;;14.50;99.90;;;;;;4977323;28;20047;-86
2023/06/15 03:13:04;;;;;;;0.33;0.30;;;14.40;99.90;;;;;;4941528;28;20049;-84
2023/06/15 03:15:34;;;;;;;0.40;0.40;;;14.40;1.00;;;;;;4957625;28;20667;-85
2023/06/15 03:18:01;;;;;;;0.60;0.60;;;13.90;99.90;;;;;;4957857;28;20493;-85
2023/06/15 03:20:32;;;;;;;0.50;0.50;;;14.40;99.90;;;;;;4976867;28;20120;-85
2023/06/15 03:23:00;;;;;;;2.28;0.40;;;14.30;99.90;;;;;;4992298;28;20100;-85
2023/06/15 03:25:29;;;;;;;0.35;0.28;;;14.20;99.90;;;;;;4992802;28;20124;-85
2023/06/15 03:27:59;;;;;;;0.40;0.40;;;14.30;99.90;;;;;;4973796;28;20057;-86
2023/06/15 03:30:26;;;;;;;0.82;0.32;;;14.20;1.00;;;;;;4987671;28;20045;-87
2023/06/15 03:32:55;;;;;;;0.75;0.60;;;14.20;99.90;;;;;;4993105;28;20050;-89
2023/06/15 03:35:23;;;;;;;0.50;0.50;;;14.20;1.00;;;;;;4976160;28;20515;-85
2023/06/15 03:37:49;;;;;;;0.50;0.50;;;14.30;1.00;;;;;;4992848;28;20058;-85
2023/06/15 03:40:15;;;;;;;0.60;0.60;;;14.20;1.00;;;;;;4960922;28;20188;-85
2023/06/15 03:42:43;;;;;;;0.55;0.55;;;14.20;1.00;;;;;;4976570;28;20791;-85
2023/06/15 03:45:13;;;;;;;0.60;0.60;;;14.20;41.70;;;;;;4994659;28;20100;-85
2023/06/15 03:47:39;;;;;;;0.70;0.50;;;14.20;1.00;;;;;;4978517;28;20056;-85
2023/06/15 03:50:11;;;;;;;0.73;0.40;;;14.20;1.00;;;;;;4992325;28;20046;-85
2023/06/15 03:52:39;;;;;;;0.52;0.52;;;14.10;99.90;;;;;;4996687;28;20050;-86
2023/06/15 03:55:12;;;;;;;0.40;0.40;;;14.20;99.90;;;;;;4995650;28;20054;-85
2023/06/15 03:57:38;;;;;;;0.95;0.85;;;14.90;7.10;;;;;;4995100;28;20478;-85
2023/06/15 04:00:07;;;;;;;0.55;0.55;;;14.10;99.90;;;;;;4978189;28;20133;-85
2023/06/15 04:02:33;;;;;;;0.95;0.43;;;14.20;1.00;;;;;;4990401;28;20041;-85
2023/06/15 04:05:02;;;;;;;1.15;0.50;;;14.20;99.90;;;;;;5013113;28;20136;-85
2023/06/15 04:07:34;;;;;;;0.40;0.40;;;14.10;40.80;;;;;;4981956;28;20050;-85
2023/06/15 04:09:59;;;;;;;0.50;0.50;;;14.20;12.50;;;;;;4980320;28;20057;-86
2023/06/15 04:12:28;;;;;;;0.57;0.57;;;14.20;92.30;;;;;;4979971;28;20058;-85
2023/06/15 04:14:53;;;;;;;0.45;0.45;;;14.30;99.90;;;;;;4980497;28;20624;-86
2023/06/15 04:17:21;;;;;;;0.57;0.57;;;14.40;99.90;;;;;;4963298;28;20132;-85
2023/06/15 04:19:50;;;;;;;0.60;0.60;;;14.30;99.90;;;;;;4980205;28;20140;-85
2023/06/15 04:22:18;;;;;;;0.73;0.68;;;14.30;99.90;;;;;;4993886;28;20049;-85
2023/06/15 04:24:44;;;;;;;0.40;0.32;;;14.30;99.90;;;;;;4995450;28;20038;-87
2023/06/15 04:27:12;;;;;;;0.40;0.40;;;15.50;99.90;;;;;;4995619;28;20108;-86
2023/06/15 04:29:57;;;;;;;0.30;0.30;;;14.50;99.90;;;;;;4980687;28;20480;-85
2023/06/15 04:32:25;;;;;;;0.65;0.65;;;14.50;45.90;;;;;;4993832;28;20057;-85
2023/06/15 04:34:54;;;;;;;0.80;0.80;;;14.50;99.90;;;;;;4996064;28;20049;-86
2023/06/15 04:37:20;;;;;;;0.40;0.40;;;14.60;99.90;;;;;;4995674;28;20065;-86
2023/06/15 04:39:49;;;;;;;;;;;14.70;99.90;;;;;;4997344;28;20050;-85
2023/06/15 04:42:17;;;;;;;0.60;0.60;;;14.80;99.90;;;;;;4979216;28;19929;-86
2023/06/15 04:44:49;;;;;;;0.43;0.43;;;14.90;1.00;;;;;;4980937;28;20546;-85
2023/06/15 04:47:17;;;;;;;0.52;0.52;;;15.00;99.90;;;;;;4979437;28;20073;-87
2023/06/15 04:49:44;;;;;;;0.50;0.50;;;15.00;99.90;;;;;;4997198;28;20048;-84
2023/06/15 04:52:13;;;;;;;0.65;0.47;;;15.20;1.00;;;;;;4996332;28;20128;-85
2023/06/15 04:54:45;;;;;;;1.15;0.77;;;15.30;1.00;;;;;;4995648;28;20064;-86
2023/06/15 04:57:14;;;;;;;0.60;0.60;;;15.40;99.90;;;;;;4995046;28;20041;-86
2023/06/15 04:59:42;;;;;;;0.45;0.45;;;15.60;99.90;;;;;;5013880;28;20121;-87
2023/06/15 05:02:08;;;;;;;0.55;0.55;;;15.20;1.00;;;;;;4994429;28;20049;-87
2023/06/15 05:04:36;;;;;;;0.63;0.63;;;15.90;99.90;;;;;;4995474;28;20045;-86
2023/06/15 05:07:05;;;;;;;0.25;0.25;;;16.00;99.90;;;;;;5013388;28;20038;-85
2023/06/15 05:09:30;;;;;;;1.38;0.60;;;16.30;99.90;;;;;;4995432;28;20042;-86
2023/06/15 05:11:59;;;;;;;0.30;0.30;;;16.60;99.90;;;;;;4978943;28;20045;-86
2023/06/15 05:14:26;;;;;;;0.70;0.70;;;17.20;99.90;;;;;;4940097;28;20325;-86
2023/06/15 05:16:52;;;;;;;0.70;0.63;;;18.20;99.90;;;;;;4994979;28;20496;-86
2023/06/15 05:19:24;;;;;;;;;;;19.10;99.90;;;;;;4994704;28;20092;-86
2023/06/15 05:21:50;;;;;;;0.22;0.22;;;20.00;99.90;;;;;;4978068;28;19929;-87
2023/06/15 05:24:18;;;;;;;;;;;19.90;99.90;;;;;;4995001;28;20048;-86
2023/06/15 05:26:44;;;;;;;0.28;0.17;;;21.30;12.20;;;;;;5001586;28;19921;-86
2023/06/15 05:29:10;;;;;;;0.20;0.20;;;21.80;60.30;;;;;;4978323;28;20049;-86
2023/06/15 05:31:36;;;;;;;0.20;0.17;;;22.30;1.00;;;;;;4992137;28;20046;-86
2023/06/15 05:34:04;;;;;;;0.17;0.17;;;22.70;99.90;;;;;;4995746;28;20544;-87
2023/06/15 05:36:37;;;;;;;0.30;0.25;;;23.00;99.90;;;;;;4975506;28;20085;-86
2023/06/15 05:39:06;;;;;;;1.13;0.75;;;22.70;99.90;;;;;;4976142;28;20052;-86
2023/06/15 05:41:35;;;;;;;0.17;0.17;;;23.80;99.90;;;;;;4990296;28;20433;-87
2023/06/15 05:44:03;;;;;;;0.25;0.25;;;24.10;99.90;;;;;;5011634;28;20042;-88
2023/06/15 05:46:41;;;;;;;;;;;;;;;;;;;;;
2023/06/15 05:49:16;;;;;;;0.30;0.30;;;24.50;99.90;;;;;;4979328;28;20484;-94
2023/06/15 05:51:52;;;;;;;;;;;;;;;;;;;;;
2023/06/15 05:54:23;;;;;;;0.30;0.30;;;25.00;99.90;;;;;;4975626;28;20045;-92
2023/06/15 05:56:49;;;;;;;1.00;0.43;;;25.10;99.90;;;;;;4977239;28;20513;-90
2023/06/15 05:59:23;;;;;;;0.60;0.60;;;25.10;99.90;;;;;;5009932;28;20052;-95
2023/06/15 06:01:53;;;;;;;0.30;0.30;;;25.10;76.40;;;;;;4993276;28;20080;-88
2023/06/15 06:04:22;;;;;;;0.30;0.28;;;25.40;82.80;;;;;;4974957;28;20044;-86
2023/06/15 06:06:49;;;;;;;0.25;0.25;;;25.50;65.90;;;;;;4976876;28;20073;-87
2023/06/15 06:09:18;;;;;;;0.22;0.22;;;25.60;35.00;;;;;;5002764;28;20045;-86
2023/06/15 06:11:47;;;;;;;0.30;0.30;;;25.00;41.40;;;;;;4994130;28;20117;-91
2023/06/15 06:14:33;;;;;;;0.57;0.47;;;25.80;35.00;;;;;;4978754;28;20112;-92
2023/06/15 06:17:11;;;;;;;;;;;;;;;;;;;;;
2023/06/15 06:19:55;;;;;;;;;;;;;;;;;;;;;
2023/06/15 06:22:27;;;;;;;0.30;0.30;;;26.00;3.70;;;;;;4972615;28;20037;-89
2023/06/15 06:25:03;;;;;;;0.77;0.38;;;26.10;10.00;;;;;;4977690;28;20038;-94
2023/06/15 06:27:55;;;;;;;1.02;0.20;;;26.20;6.80;;;;;;4962736;28;20073;-96
2023/06/15 06:30:43;;;;;;;;;;;;;;;;;;;;;
2023/06/15 06:33:33;;;;;;;0.40;0.40;;;26.20;1.00;;;;;;4979709;28;20049;-93
2023/06/15 06:39:32;;;;;;;0.40;0.40;;;26.30;1.00;;;;;;4968173;28;20054;-96
2023/06/15 06:42:05;;;;;;;0.43;0.32;;;25.90;1.00;;;;;;4978680;28;20037;-93
2023/06/15 06:44:46;;;;;;;;;;;;;;;;;;;;;
2023/06/15 06:47:40;;;;;;;0.43;0.28;;;25.70;1.00;;;;;;4993588;28;20053;-92
2023/06/15 06:50:11;;;;;;;0.22;0.22;;;25.40;1.00;;;;;;4952569;28;20069;-91
2023/06/15 06:52:52;;;;;;;0.28;0.28;;;25.40;1.00;;;;;;4954555;28;20129;-92
2023/06/15 06:55:29;;;;;;;0.82;0.20;;;25.30;1.00;;;;;;4959228;28;20046;-92
2023/06/15 06:58:05;;;;;;;0.90;0.50;;;25.10;1.00;;;;;;4985951;28;20156;-92
2023/06/15 07:00:31;;;;;;;0.45;0.30;;;25.00;1.00;;;;;;4957061;28;20503;-91
2023/06/15 07:03:00;;;;;;;0.20;0.20;;;24.90;1.00;;;;;;4989540;28;20044;-94
2023/06/15 07:05:47;;;;;;;;;;;24.90;1.00;;;;;;4989194;28;20045;-90
2023/06/15 07:08:24;;;;;;;0.40;0.30;;;24.90;1.00;;;;;;4984373;28;19925;-92
2023/06/15 07:11:03;;;;;;;;;;;;;;;;;;;;;
2023/06/15 07:13:52;;;;;;;1.23;0.52;;;24.90;1.00;;;;;;4995851;28;20489;-90
2023/06/15 07:16:35;;;;;;;0.35;0.35;;;24.80;1.00;;;;;;4979671;28;20046;-90
2023/06/15 07:21:53;;;;;;;0.40;0.40;;;24.60;1.00;;;;;;4978085;28;20053;-92
2023/06/15 07:36:02;;;;;;;0.57;0.40;;;25.30;1.00;;;;;;4957571;28;20041;-96
2023/06/15 07:38:46;;;;;;;0.28;0.28;;;24.90;1.00;;;;;;5111871;23;20062;-91
2023/06/15 07:41:24;;;;;;;;;;;;;;;;;;;;;
2023/06/15 07:43:56;;;;;;;1.02;0.20;;;24.70;1.00;;;;;;4977964;28;20068;-92
2023/06/15 07:46:33;;;;;;;0.30;0.30;;;24.70;1.00;;;;;;4946717;28;20137;-92
2023/06/15 07:49:19;;;;;;;0.47;0.32;;;24.60;1.00;;;;;;4964016;28;20060;-92
2023/06/15 07:51:47;;;;;;;0.35;0.35;;;24.70;1.00;;;;;;4963301;28;20050;-91
2023/06/15 07:54:15;;;;;;;0.20;0.20;;;24.90;1.00;;;;;;4963018;28;20100;-91
2023/06/15 07:56:44;;;;;;;0.38;0.38;;;24.50;1.00;;;;;;4962486;28;20046;-91
2023/06/15 07:59:10;;;;;;;0.47;0.47;;;24.30;1.00;;;;;;4963113;28;20068;-88
2023/06/15 08:01:41;;;;;;;1.33;0.50;;;24.30;1.00;;;;;;4977502;28;20489;-90
2023/06/15 08:04:19;;;;;;;;;;;;;;;;;;;;;
2023/06/15 08:06:45;;;;;;;0.25;0.25;;;24.70;1.00;;;;;;4975722;28;20046;-91
2023/06/15 08:09:11;;;;;;;;;;;24.60;1.00;;;;;;4963554;28;20050;-95
2023/06/15 08:11:39;;;;;;;1.33;0.40;;;24.70;1.00;;;;;;4962002;28;19951;-96
2023/06/15 08:14:05;;;;;;;0.30;0.20;;;24.70;1.00;;;;;;4963419;28;20140;-95
2023/06/15 08:16:33;;;;;;;;;;;25.00;1.00;;;;;;4963136;28;20137;-93
2023/06/15 08:19:19;;;;;;;0.55;0.55;;;24.80;1.00;;;;;;4962677;28;19922;-94
2023/06/15 08:22:10;;;;;;;0.20;0.20;;;24.90;1.00;;;;;;4946749;28;20550;-94
2023/06/15 08:24:39;;;;;;;0.25;0.25;;;25.00;1.00;;;;;;4947483;28;20046;-94
2023/06/15 08:27:10;;;;;;;0.40;0.20;;;25.10;1.00;;;;;;4978692;28;20046;-94
2023/06/15 08:29:44;;;;;;;0.25;0.25;;;25.80;1.00;;;;;;4977299;28;20046;-96
2023/06/15 08:32:16;;;;;;;0.30;0.30;;;25.30;1.00;;;;;;4960343;28;20501;-95
2023/06/15 08:34:44;;;;;;;0.30;0.30;;;25.10;1.00;;;;;;4963673;28;20077;-88
2023/06/15 08:37:12;;;;;;;;;;;25.00;1.00;;;;;;4979002;28;20042;-87
2023/06/15 08:39:40;;;;;;;0.30;0.30;;;25.10;1.00;;;;;;4978204;28;19945;-87
2023/06/15 08:42:21;;;;;;;0.70;0.70;;;25.10;1.00;;;;;;4978097;28;20054;-91
2023/06/15 08:44:57;;;;;;;0.25;0.25;;;25.10;1.00;;;;;;4961376;28;20133;-95
2023/06/15 08:47:24;;;;;;;0.30;0.30;;;25.20;1.00;;;;;;4961569;28;20117;-87
2023/06/15 08:50:01;;;;;;;0.35;0.35;;;24.50;1.00;;;;;;4975210;28;20449;-91
2023/06/15 08:52:50;;;;;;;0.50;0.40;;;25.20;1.00;;;;;;4955762;28;20106;-90
2023/06/15 08:55:18;;;;;;;0.52;0.30;;;25.50;1.00;;;;;;4973206;28;20477;-85
2023/06/15 08:57:44;;;;;;;0.50;0.50;;;25.60;1.00;;;;;;4956431;28;20491;-89
2023/06/15 09:00:19;;;;;;;;;;;25.70;1.00;;;;;;4955280;28;20142;-92
2023/06/15 09:02:53;;;;;;;1.55;0.32;;;25.60;1.00;;;;;;4960476;28;19921;-92
2023/06/15 09:08:51;;;;;;;0.73;0.50;;;25.80;1.00;;;;;;4952872;28;20058;-88
2023/06/15 09:11:24;;;;;;;0.30;0.28;;;25.90;1.00;;;;;;4945907;28;20088;-88
2023/06/15 09:14:09;;;;;;;;;;;;;;;;;;;;;
2023/06/15 09:19:38;;;;;;;0.75;0.45;;;26.20;1.00;;;;;;4965496;28;20413;-86
2023/06/15 09:22:15;;;;;;;0.60;0.30;;;25.80;1.00;;;;;;4980023;28;20520;-90
2023/06/15 09:24:47;;;;;;;0.40;0.40;;;25.80;1.00;;;;;;4948466;28;20066;-89
2023/06/15 09:27:19;;;;;;;0.45;0.45;;;25.80;1.00;;;;;;4978320;28;20043;-88
2023/06/15 09:30:19;;;;;;;;;;;;;;;;;;;;;
2023/06/15 09:32:47;;;;;;;0.40;0.40;;;25.80;1.00;;;;;;4958270;28;20061;-88
2023/06/15 09:35:15;;;;;;;0.32;0.32;;;25.90;1.00;;;;;;4943239;28;20043;-87
2023/06/15 09:37:41;;;;;;;0.65;0.65;;;25.10;1.00;;;;;;4926878;28;20102;-88
2023/06/15 09:40:10;;;;;;;;;;;25.90;1.00;;;;;;4942207;28;20059;-87
2023/06/15 09:42:42;;;;;;;0.38;0.38;;;25.70;1.00;;;;;;4957096;28;19984;-87
2023/06/15 09:45:35;;;;;;;0.20;0.20;;;25.80;1.00;;;;;;4979127;28;20046;-88
2023/06/15 09:48:01;;;;;;;0.20;0.20;;;25.70;1.00;;;;;;4959694;28;20050;-88
2023/06/15 09:50:37;;;;;;;;;;;25.70;1.00;;;;;;4943656;28;20133;-88
2023/06/15 09:53:12;;;;;;;0.30;0.22;;;25.60;1.00;;;;;;4962008;28;19921;-88
2023/06/15 09:55:44;;;;;;;0.20;0.20;;;25.70;1.00;;;;;;4961001;28;20053;-88
2023/06/15 09:58:20;;;;;;;0.63;0.60;;;25.70;1.00;;;;;;4940578;28;20058;-93
2023/06/15 10:01:03;;;;;;;0.65;0.50;;;25.80;1.00;;;;;;4973505;28;20049;-88
2023/06/15 10:03:31;;;;;;;0.43;0.40;;;25.90;1.00;;;;;;4984436;28;20054;-87
2023/06/15 10:06:09;;;;;;;0.40;0.40;;;26.10;1.00;;;;;;4990238;28;20053;-88
2023/06/15 10:08:40;;;;;;;0.20;0.20;;;26.10;1.00;;;;;;4984229;28;20142;-87
2023/06/15 10:11:16;;;;;;;0.70;0.68;;;26.10;1.00;;;;;;4974773;28;20057;-88
2023/06/15 10:13:52;;;;;;;0.38;0.38;;;26.20;1.00;;;;;;4958407;28;20049;-90
2023/06/15 10:16:39;;;;;;;0.20;0.20;;;26.20;1.00;;;;;;4986916;28;20049;-88
2023/06/15 10:19:11;;;;;;;0.30;0.30;;;26.30;1.00;;;;;;4966906;28;20054;-88
2023/06/15 10:21:46;;;;;;;0.65;0.38;;;26.30;1.00;;;;;;4985031;28;20076;-89
2023/06/15 10:24:21;;;;;;;0.47;0.35;;;26.30;1.00;;;;;;4992562;28;20050;-90
2023/06/15 10:26:50;;;;;;;0.55;0.30;;;26.20;1.00;;;;;;4978354;28;20396;-88
2023/06/15 10:29:31;;;;;;;1.05;0.45;;;26.10;1.00;;;;;;4979425;28;20050;-89
2023/06/15 10:32:30;;;;;;;0.40;0.40;;;26.10;1.00;;;;;;4969797;28;20050;-92
2023/06/15 10:35:30;;;;;;;0.45;0.45;;;25.50;1.00;;;;;;4964228;28;20808;-89
2023/06/15 10:38:17;;;;;;;0.30;0.30;;;26.30;1.00;;;;;;4976924;28;20042;-87
2023/06/15 10:40:47;;;;;;;0.38;0.38;;;26.40;1.00;;;;;;4981855;28;20053;-88
2023/06/15 10:43:29;;;;;;;0.40;0.40;;;26.50;1.00;;;;;;4978189;28;20104;-87
2023/06/15 10:46:06;;;;;;;0.45;0.30;;;26.50;1.00;;;;;;4975741;28;20050;-88
2023/06/15 10:48:43;;;;;;;0.90;0.75;;;26.40;1.00;;;;;;4977740;28;20107;-87
2023/06/15 10:51:15;;;;;;;0.47;0.30;;;26.40;1.00;;;;;;4977081;28;20049;-86
2023/06/15 10:53:46;;;;;;;0.40;0.35;;;26.40;1.00;;;;;;4979430;28;20458;-86
2023/06/15 10:56:27;;;;;;;0.68;0.45;;;26.50;1.00;;;;;;4995517;28;20099;-90
2023/06/15 10:58:57;;;;;;;0.32;0.32;;;26.50;1.00;;;;;;4982069;28;20076;-85
2023/06/15 11:01:24;;;;;;;0.30;0.30;;;26.50;1.00;;;;;;4997926;28;20439;-85
2023/06/15 11:03:56;;;;;;;0.57;0.57;;;26.50;1.00;;;;;;4998626;28;20049;-85
2023/06/15 11:06:33;;;;;;;0.73;0.40;;;26.70;1.00;;;;;;4997796;28;20050;-85
2023/06/15 11:09:16;;;;;;;0.30;0.25;;;26.80;1.00;;;;;;4998463;28;20453;-85
2023/06/15 11:11:43;;;;;;;0.35;0.35;;;26.90;1.00;;;;;;4971624;28;20046;-86
2023/06/15 11:14:18;;;;;;;0.22;0.22;;;26.90;1.00;;;;;;5012687;28;20180;-85
2023/06/15 11:16:43;;;;;;;0.13;0.13;;;26.90;1.00;;;;;;4998815;28;20046;-86
2023/06/15 11:19:12;;;;;;;0.40;0.30;;;26.90;1.00;;;;;;4980340;28;20673;-85
2023/06/15 11:21:50;;;;;;;0.40;0.40;;;27.00;1.00;;;;;;4999260;28;20046;-84
2023/06/15 11:24:19;;;;;;;0.30;0.30;;;27.00;1.00;;;;;;4982508;28;20128;-86
2023/06/15 11:26:48;;;;;;;0.25;0.25;;;27.10;1.00;;;;;;4997849;28;20505;-84
2023/06/15 11:29:22;;;;;;;0.40;0.35;;;27.10;1.00;;;;;;5013124;28;20096;-86
2023/06/15 11:31:50;;;;;;;0.60;0.40;;;27.10;1.00;;;;;;4997987;28;20053;-86
2023/06/15 11:34:16;;;;;;;0.30;0.30;;;27.20;1.00;;;;;;4977627;28;20500;-86
2023/06/15 11:36:45;;;;;;;0.38;0.38;;;27.40;1.00;;;;;;4965764;28;20078;-86
2023/06/15 11:39:21;;;;;;;0.30;0.30;;;27.50;1.00;;;;;;4965365;28;20066;-86
2023/06/15 11:41:53;;;;;;;1.48;0.35;;;27.60;1.00;;;;;;4998513;28;20057;-86
2023/06/15 11:44:27;;;;;;;0.30;0.30;;;27.50;1.00;;;;;;4995160;28;20065;-88
2023/06/15 11:46:56;;;;;;;0.20;0.20;;;27.60;1.00;;;;;;4980766;28;20069;-86
2023/06/15 11:49:31;;;;;;;0.73;0.32;;;27.60;1.00;;;;;;4981887;28;20042;-92
2023/06/15 11:52:00;;;;;;;0.38;0.38;;;27.70;1.00;;;;;;4965739;28;20129;-89
2023/06/15 11:54:28;;;;;;;0.30;0.30;;;27.80;1.00;;;;;;5005763;28;20377;-89
2023/06/15 11:57:08;;;;;;;;;;;;;;;;;;;;;
2023/06/15 11:59:39;;;;;;;0.40;0.35;;;27.80;1.00;;;;;;4999599;28;20049;-89
2023/06/15 12:02:10;;;;;;;0.40;0.40;;;27.90;1.00;;;;;;4982530;28;20045;-89
2023/06/15 12:04:36;;;;;;;0.43;0.43;;;27.80;1.00;;;;;;4982585;28;20042;-89
2023/06/15 12:07:04;;;;;;;1.08;0.63;;;27.80;1.00;;;;;;4997818;28;20542;-88
2023/06/15 12:09:31;;;;;;;0.57;0.40;;;27.80;1.00;;;;;;4982696;28;20046;-87
2023/06/15 12:12:00;;;;;;;0.63;0.63;;;27.80;1.00;;;;;;4982156;28;20050;-90
2023/06/15 12:14:28;;;;;;;0.20;0.20;;;27.80;1.00;;;;;;4983553;28;20042;-88
2023/06/15 12:16:57;;;;;;;0.63;0.63;;;27.20;1.00;;;;;;4981340;28;20042;-89
2023/06/15 12:19:28;;;;;;;0.75;0.60;;;28.00;1.00;;;;;;4982409;28;20129;-88
2023/06/15 12:21:58;;;;;;;0.93;0.55;;;28.00;1.00;;;;;;4981982;28;20484;-90
2023/06/15 12:24:33;;;;;;;0.40;0.40;;;28.10;1.00;;;;;;4998131;28;20054;-89
2023/06/15 12:27:15;;;;;;;0.15;0.15;;;28.30;1.00;;;;;;4966341;28;20049;-96
2023/06/15 12:29:44;;;;;;;0.47;0.47;;;28.20;1.00;;;;;;4999890;28;20081;-92
2023/06/15 12:32:33;;;;;;;0.65;0.38;;;28.20;1.00;;;;;;4980313;28;20042;-91
2023/06/15 12:35:25;;;;;;;0.20;0.20;;;28.20;1.00;;;;;;5007789;28;20129;-91
2023/06/15 12:37:51;;;;;;;0.55;0.45;;;28.40;1.00;;;;;;4982363;28;20050;-92
2023/06/15 12:40:21;;;;;;;0.80;0.70;;;28.40;1.00;;;;;;4980604;28;20058;-92
2023/06/15 12:42:59;;;;;;;0.30;0.30;;;28.40;1.00;;;;;;4997601;28;20053;-90
2023/06/15 12:45:50;;;;;;;0.40;0.40;;;28.40;1.00;;;;;;4997293;28;20045;-91
2023/06/15 12:48:18;;;;;;;0.35;0.35;;;28.40;1.00;;;;;;4980323;28;20411;-89
2023/06/15 12:50:57;;;;;;;1.75;0.60;;;28.40;1.00;;;;;;4977708;28;20050;-95
2023/06/15 12:53:25;;;;;;;0.30;0.30;;;28.40;1.00;;;;;;4989812;28;20049;-95
2023/06/15 12:55:58;;;;;;;0.55;0.55;;;28.40;1.00;;;;;;4983228;28;20049;-94
2023/06/15 12:58:27;;;;;;;0.40;0.40;;;28.30;1.00;;;;;;4948765;28;20054;-95
2023/06/15 13:01:18;;;;;;;0.85;0.43;;;27.60;1.00;;;;;;4980540;28;20132;-92
2023/06/15 13:03:49;;;;;;;0.65;0.65;;;28.20;1.00;;;;;;4949646;28;20062;-93
2023/06/15 13:06:18;;;;;;;0.28;0.28;;;28.10;1.00;;;;;;4954371;28;20097;-90
2023/06/15 13:09:03;;;;;;;0.30;0.30;;;28.10;1.00;;;;;;4979652;28;20050;-89
2023/06/15 13:11:47;;;;;;;0.40;0.40;;;28.20;1.00;;;;;;4978347;28;20050;-89
2023/06/15 13:14:22;;;;;;;0.35;0.35;;;28.20;1.00;;;;;;4991499;28;20108;-90
2023/06/15 13:16:50;;;;;;;1.85;0.70;;;28.20;1.00;;;;;;4962159;28;20049;-90
2023/06/15 13:19:22;;;;;;;0.40;0.40;;;28.20;1.00;;;;;;4962094;28;20046;-89
2023/06/15 13:21:55;;;;;;;0.50;0.30;;;28.20;1.00;;;;;;4978601;28;20046;-90
2023/06/15 13:24:37;;;;;;;0.65;0.65;;;28.30;1.00;;;;;;4994244;28;20133;-92
2023/06/15 13:27:19;;;;;;;0.50;0.50;;;28.40;1.00;;;;;;4960908;28;20124;-91
2023/06/15 13:29:48;;;;;;;0.22;0.22;;;28.40;1.00;;;;;;4945806;28;20133;-96
2023/06/15 13:32:15;;;;;;;0.30;0.30;;;28.40;1.00;;;;;;4957944;28;20161;-89
2023/06/15 13:34:41;;;;;;;1.02;0.55;;;28.10;1.00;;;;;;4973868;28;20441;-88
2023/06/15 13:37:21;;;;;;;;;;;;;;;;;;;;;
2023/06/15 13:39:59;;;;;;;0.52;0.52;;;28.10;1.00;;;;;;4986240;28;20050;-90
2023/06/15 13:42:28;;;;;;;0.30;0.30;;;28.30;1.00;;;;;;4962950;28;20096;-88
2023/06/15 13:44:54;;;;;;;0.30;0.30;;;28.50;1.00;;;;;;4994662;28;20053;-89
2023/06/15 13:47:23;;;;;;;0.50;0.40;;;28.70;1.00;;;;;;4977209;28;20069;-89
2023/06/15 13:49:59;;;;;;;0.90;0.90;;;28.60;1.00;;;;;;4978144;28;20456;-87
2023/06/15 13:52:27;;;;;;;0.47;0.45;;;28.70;1.00;;;;;;5004823;28;20046;-90
2023/06/15 13:54:54;;;;;;;0.52;0.52;;;28.60;1.00;;;;;;4977879;28;20053;-90
2023/06/15 13:57:21;;;;;;;0.57;0.50;;;28.50;1.00;;;;;;4977215;28;20133;-87
2023/06/15 13:59:47;;;;;;;0.50;0.50;;;28.30;1.00;;;;;;4991705;28;20058;-87
2023/06/15 14:02:13;;;;;;;0.13;0.13;;;28.00;1.00;;;;;;4976923;28;20069;-87